Time;durP1;ratioP1;P1;durP2;ratioP2;P2;SDS_P1;SDS_P2;PMS_P1;PMS_P2;Temp;Humidity;BMP_temperature;BMP_pressure;BME280_temperature;BME280_humidity;BME280_pressure;Samples;Min_cycle;Max_cycle;Signal;HPM_P1;HPM_P2
2023/03/08 00:01:47;;;;;;;10.30;5.88;;;4.40;92.10;;;;;;4960112;28;20361;-73
2023/03/08 00:04:13;;;;;;;14.38;6.72;;;4.30;92.10;;;;;;4964403;28;20039;-72
2023/03/08 00:06:38;;;;;;;11.85;6.25;;;4.30;92.40;;;;;;4966451;28;20030;-72
2023/03/08 00:09:04;;;;;;;14.10;6.97;;;4.30;92.30;;;;;;4964511;28;20023;-72
2023/03/08 00:11:30;;;;;;;11.93;6.45;;;4.30;92.30;;;;;;4968679;28;20035;-72
2023/03/08 00:13:56;;;;;;;12.27;5.70;;;4.30;92.30;;;;;;4964804;28;20156;-72
2023/03/08 00:16:22;;;;;;;10.57;5.57;;;4.30;92.30;;;;;;4962924;28;20567;-73
2023/03/08 00:18:48;;;;;;;12.30;6.05;;;4.30;92.40;;;;;;4958593;28;20391;-72
2023/03/08 00:21:16;;;;;;;14.52;6.57;;;4.30;92.40;;;;;;4963735;28;20093;-71
2023/03/08 00:23:42;;;;;;;14.23;6.45;;;4.30;92.60;;;;;;4958683;28;20459;-72
2023/03/08 00:26:10;;;;;;;15.07;6.22;;;4.30;92.60;;;;;;4958437;28;20042;-72
2023/03/08 00:28:35;;;;;;;13.20;5.88;;;4.20;92.80;;;;;;4961262;28;20718;-72
2023/03/08 00:31:04;;;;;;;11.98;6.07;;;4.20;92.70;;;;;;4962359;28;20034;-72
2023/03/08 00:33:31;;;;;;;12.23;6.68;;;4.20;92.60;;;;;;4963955;28;20086;-72
2023/03/08 00:36:06;;;;;;;12.82;6.45;;;4.20;92.70;;;;;;4962876;28;20060;-72
2023/03/08 00:38:34;;;;;;;12.68;6.28;;;4.20;92.70;;;;;;4957468;28;20070;-72
2023/03/08 00:41:00;;;;;;;11.07;5.95;;;4.20;92.80;;;;;;4964146;28;20437;-72
2023/03/08 00:43:26;;;;;;;13.77;5.95;;;4.20;92.90;;;;;;4968023;28;20027;-72
2023/03/08 00:45:52;;;;;;;13.73;6.28;;;4.20;92.90;;;;;;4966421;28;20178;-73
2023/03/08 00:48:18;;;;;;;12.52;7.07;;;4.20;93.00;;;;;;4969696;28;20058;-72
2023/03/08 00:50:44;;;;;;;12.00;6.00;;;4.10;92.90;;;;;;4967693;28;20055;-72
2023/03/08 00:53:10;;;;;;;15.20;6.57;;;4.10;93.20;;;;;;4963163;28;20030;-72
2023/03/08 00:55:36;;;;;;;11.75;6.18;;;4.10;93.10;;;;;;4964799;28;20373;-72
2023/03/08 00:58:02;;;;;;;12.02;6.32;;;4.10;93.20;;;;;;4958513;28;20031;-73
2023/03/08 01:00:29;;;;;;;15.40;6.03;;;4.10;93.30;;;;;;4967217;28;20073;-71
2023/03/08 01:02:55;;;;;;;13.52;6.63;;;4.10;93.20;;;;;;4967440;28;20022;-73
2023/03/08 01:05:21;;;;;;;14.18;7.38;;;4.00;93.30;;;;;;4982833;28;20047;-73
2023/03/08 01:07:47;;;;;;;13.05;6.43;;;4.00;93.30;;;;;;4968705;28;20031;-73
2023/03/08 01:10:13;;;;;;;14.02;7.00;;;4.00;93.40;;;;;;4972070;28;20068;-73
2023/03/08 01:12:39;;;;;;;13.20;6.00;;;4.00;93.30;;;;;;4962828;28;20058;-73
2023/03/08 01:15:05;;;;;;;13.35;6.05;;;3.90;93.50;;;;;;4971567;28;20091;-73
2023/03/08 01:17:31;;;;;;;12.50;6.72;;;3.90;93.50;;;;;;4974710;28;20031;-73
2023/03/08 01:19:57;;;;;;;13.45;6.25;;;4.00;93.50;;;;;;4967356;28;20113;-73
2023/03/08 01:22:23;;;;;;;13.48;6.40;;;4.00;93.60;;;;;;4968117;28;20189;-73
2023/03/08 01:24:49;;;;;;;14.57;6.82;;;3.90;93.40;;;;;;4973613;28;20459;-73
2023/03/08 01:27:16;;;;;;;13.63;6.28;;;3.90;93.50;;;;;;4960805;28;20015;-73
2023/03/08 01:29:42;;;;;;;12.90;5.93;;;3.90;93.50;;;;;;4967030;28;20023;-73
2023/03/08 01:32:09;;;;;;;12.32;6.00;;;4.00;93.70;;;;;;4970595;28;20160;-72
2023/03/08 01:34:37;;;;;;;10.43;6.20;;;4.00;93.50;;;;;;4966977;28;20110;-73
2023/03/08 01:37:04;;;;;;;13.80;6.50;;;4.00;93.40;;;;;;4968161;28;20031;-73
2023/03/08 01:39:29;;;;;;;12.00;6.35;;;4.00;93.50;;;;;;4971425;28;20113;-73
2023/03/08 01:41:55;;;;;;;13.50;6.28;;;4.00;93.40;;;;;;4971436;28;20472;-73
2023/03/08 01:44:21;;;;;;;15.65;6.55;;;4.00;93.40;;;;;;4964387;28;20074;-73
2023/03/08 01:46:47;;;;;;;15.40;6.50;;;4.00;93.50;;;;;;4971218;28;20022;-72
2023/03/08 01:49:18;;;;;;;15.55;6.25;;;4.00;93.70;;;;;;4965891;28;20092;-73
2023/03/08 01:52:01;;;;;;;16.08;6.22;;;4.00;93.40;;;;;;4975876;28;20487;-72
2023/03/08 01:54:32;;;;;;;12.10;5.28;;;4.00;93.40;;;;;;4973616;28;20086;-72
2023/03/08 01:57:16;;;;;;;10.43;5.18;;;3.90;93.40;;;;;;4968930;28;20447;-72
2023/03/08 01:59:42;;;;;;;13.13;6.30;;;3.90;93.50;;;;;;4969548;28;20384;-74
2023/03/08 02:02:09;;;;;;;12.65;6.00;;;3.90;93.50;;;;;;4979506;28;20031;-74
2023/03/08 02:04:35;;;;;;;13.27;6.03;;;3.90;93.50;;;;;;4961106;28;20023;-73
2023/03/08 02:07:01;;;;;;;11.90;5.70;;;3.90;93.40;;;;;;4971503;28;20030;-73
2023/03/08 02:09:26;;;;;;;14.27;6.30;;;3.90;93.50;;;;;;4968162;28;20078;-73
2023/03/08 02:11:57;;;;;;;12.35;5.20;;;4.00;93.50;;;;;;4965038;28;20026;-73
2023/03/08 02:14:25;;;;;;;12.13;5.60;;;4.00;93.50;;;;;;4962265;28;20066;-73
2023/03/08 02:16:50;;;;;;;12.38;5.50;;;4.00;93.50;;;;;;4966639;28;20105;-72
2023/03/08 02:19:22;;;;;;;10.00;5.20;;;4.00;93.40;;;;;;4969239;28;20121;-73
2023/03/08 02:21:48;;;;;;;8.75;5.30;;;4.00;93.50;;;;;;4971559;28;20417;-74
2023/03/08 02:24:23;;;;;;;10.45;5.13;;;4.00;93.40;;;;;;4969926;28;20023;-72
2023/03/08 02:26:56;;;;;;;13.90;6.15;;;4.10;93.50;;;;;;4970849;28;20030;-72
2023/03/08 02:29:21;;;;;;;14.02;5.50;;;4.10;93.40;;;;;;4963956;28;20033;-73
2023/03/08 02:31:47;;;;;;;9.07;5.07;;;4.10;93.40;;;;;;4969369;28;20039;-73
2023/03/08 02:34:13;;;;;;;10.60;5.72;;;4.10;93.40;;;;;;4967341;28;20081;-72
2023/03/08 02:36:38;;;;;;;14.30;6.07;;;4.10;93.40;;;;;;4967790;28;20425;-73
2023/03/08 02:39:04;;;;;;;10.38;5.35;;;4.20;93.40;;;;;;4968722;28;20392;-73
2023/03/08 02:41:29;;;;;;;13.30;5.95;;;4.20;93.50;;;;;;4960447;28;20476;-73
2023/03/08 02:43:55;;;;;;;14.52;6.07;;;4.20;93.40;;;;;;4966401;28;20509;-73
2023/03/08 02:46:21;;;;;;;12.60;6.38;;;4.20;93.30;;;;;;4969576;28;20077;-73
2023/03/08 02:48:46;;;;;;;11.30;5.68;;;4.20;93.40;;;;;;4969642;28;20039;-73
2023/03/08 02:51:12;;;;;;;9.82;6.03;;;4.20;93.40;;;;;;4963956;28;20037;-72
2023/03/08 02:53:37;;;;;;;12.00;5.68;;;4.20;93.40;;;;;;4957558;28;20477;-72
2023/03/08 02:56:03;;;;;;;12.32;6.13;;;4.20;93.50;;;;;;4964430;28;20031;-73
2023/03/08 02:58:29;;;;;;;11.50;5.65;;;4.30;93.60;;;;;;4968194;28;20031;-73
2023/03/08 03:00:55;;;;;;;14.65;6.20;;;4.30;93.50;;;;;;4970049;28;20058;-73
2023/03/08 03:03:21;;;;;;;13.07;6.07;;;4.30;93.60;;;;;;4965723;28;20133;-73
2023/03/08 03:05:47;;;;;;;15.15;5.97;;;4.30;93.50;;;;;;4964933;28;20490;-72
2023/03/08 03:08:12;;;;;;;11.27;5.45;;;4.30;93.50;;;;;;4966366;28;20340;-73
2023/03/08 03:10:38;;;;;;;13.15;6.32;;;4.30;93.60;;;;;;4967951;28;20049;-73
2023/03/08 03:13:05;;;;;;;12.55;6.75;;;4.30;93.60;;;;;;4969874;28;20030;-73
2023/03/08 03:15:31;;;;;;;13.23;6.55;;;4.40;93.50;;;;;;4974211;23;20042;-74
2023/03/08 03:17:57;;;;;;;12.00;6.30;;;4.30;93.50;;;;;;4968157;28;20037;-76
2023/03/08 03:20:23;;;;;;;12.50;6.07;;;4.30;93.40;;;;;;4969187;28;20046;-74
2023/03/08 03:22:49;;;;;;;14.10;6.40;;;4.30;93.50;;;;;;4965443;28;20593;-74
2023/03/08 03:25:14;;;;;;;10.98;5.60;;;4.30;93.40;;;;;;4963545;28;20109;-74
2023/03/08 03:27:40;;;;;;;13.38;5.53;;;4.40;93.40;;;;;;4966002;28;20506;-75
2023/03/08 03:30:08;;;;;;;13.18;6.03;;;4.40;93.40;;;;;;4968373;28;20097;-75
2023/03/08 03:32:33;;;;;;;14.13;6.50;;;4.40;93.30;;;;;;4968180;28;20378;-75
2023/03/08 03:34:59;;;;;;;15.30;6.38;;;4.40;93.40;;;;;;4966816;28;20043;-75
2023/03/08 03:37:25;;;;;;;14.27;6.55;;;4.40;93.40;;;;;;4962697;28;20039;-75
2023/03/08 03:39:50;;;;;;;13.95;6.10;;;4.40;93.30;;;;;;4966522;28;20031;-74
2023/03/08 03:42:16;;;;;;;12.98;6.70;;;4.40;93.30;;;;;;4967934;28;20188;-74
2023/03/08 03:44:42;;;;;;;11.48;6.60;;;4.40;93.40;;;;;;4961711;28;20118;-74
2023/03/08 03:47:08;;;;;;;13.25;6.38;;;4.40;93.30;;;;;;4964250;28;20478;-74
2023/03/08 03:49:33;;;;;;;14.35;6.57;;;4.40;93.30;;;;;;4979759;28;20491;-76
2023/03/08 03:51:59;;;;;;;13.48;6.45;;;4.40;93.40;;;;;;4964235;28;20035;-75
2023/03/08 03:54:25;;;;;;;11.30;5.95;;;4.40;93.50;;;;;;4965879;28;20363;-75
2023/03/08 03:56:51;;;;;;;12.38;6.50;;;4.40;93.50;;;;;;4965229;28;20212;-75
2023/03/08 03:59:17;;;;;;;13.35;6.22;;;4.40;93.50;;;;;;4967694;28;20101;-75
2023/03/08 04:01:42;;;;;;;12.40;5.95;;;4.40;93.50;;;;;;4961882;28;20121;-75
2023/03/08 04:04:10;;;;;;;12.13;6.00;;;4.40;93.60;;;;;;4964399;28;20023;-75
2023/03/08 04:06:35;;;;;;;12.02;5.95;;;4.40;93.60;;;;;;4969344;28;20023;-75
2023/03/08 04:09:04;;;;;;;10.88;6.15;;;4.30;93.50;;;;;;4965121;28;20033;-74
2023/03/08 04:11:35;;;;;;;10.32;5.25;;;4.40;93.50;;;;;;4964608;28;20052;-75
2023/03/08 04:14:01;;;;;;;12.60;5.38;;;4.30;93.40;;;;;;4972513;28;20022;-74
2023/03/08 04:16:29;;;;;;;10.73;5.50;;;4.30;93.80;;;;;;4966799;28;20038;-75
2023/03/08 04:18:58;;;;;;;11.00;5.53;;;4.30;93.40;;;;;;4970342;28;20027;-74
2023/03/08 04:21:24;;;;;;;13.50;5.57;;;4.30;93.60;;;;;;4967464;28;20035;-75
2023/03/08 04:23:50;;;;;;;12.32;5.85;;;4.20;93.70;;;;;;4971576;28;20430;-75
2023/03/08 04:26:16;;;;;;;10.65;5.07;;;4.20;93.90;;;;;;4967275;28;20035;-75
2023/03/08 04:28:42;;;;;;;13.50;6.20;;;4.20;93.80;;;;;;4968648;28;20086;-74
2023/03/08 04:31:12;;;;;;;13.40;6.47;;;4.20;93.90;;;;;;4969835;28;20053;-74
2023/03/08 04:33:38;;;;;;;16.15;6.80;;;4.20;94.00;;;;;;4966365;28;20082;-75
2023/03/08 04:36:03;;;;;;;12.57;6.90;;;4.20;94.00;;;;;;4969920;28;20038;-74
2023/03/08 04:38:30;;;;;;;14.25;6.45;;;4.20;94.10;;;;;;4967404;28;20654;-75
2023/03/08 04:41:01;;;;;;;14.65;7.28;;;4.10;94.20;;;;;;4971371;28;20058;-74
2023/03/08 04:43:31;;;;;;;14.57;7.20;;;4.10;94.30;;;;;;4970715;28;20435;-74
2023/03/08 04:45:57;;;;;;;14.85;7.65;;;4.20;94.40;;;;;;4967475;28;20090;-74
2023/03/08 04:48:23;;;;;;;17.58;7.13;;;4.20;94.60;;;;;;4963676;28;20039;-74
2023/03/08 04:50:57;;;;;;;16.98;8.73;;;4.20;94.70;;;;;;4972881;28;20050;-74
2023/03/08 04:53:23;;;;;;;17.80;7.32;;;4.20;94.70;;;;;;4978614;28;20038;-75
2023/03/08 04:55:50;;;;;;;16.20;7.50;;;4.20;94.80;;;;;;4966203;28;20039;-74
2023/03/08 04:58:16;;;;;;;19.73;8.00;;;4.20;94.90;;;;;;4964887;28;20034;-75
2023/03/08 05:00:41;;;;;;;16.83;8.30;;;4.20;94.80;;;;;;4969197;28;20034;-74
2023/03/08 05:03:07;;;;;;;20.30;8.40;;;4.20;94.80;;;;;;4968060;28;20088;-74
2023/03/08 05:05:33;;;;;;;18.50;7.35;;;4.20;94.90;;;;;;4968390;28;20153;-74
2023/03/08 05:08:02;;;;;;;16.70;7.97;;;4.20;95.00;;;;;;4981312;28;20037;-74
2023/03/08 05:10:28;;;;;;;18.73;9.23;;;4.20;95.00;;;;;;4967147;28;20027;-74
2023/03/08 05:12:54;;;;;;;15.50;8.00;;;4.20;95.10;;;;;;4967354;28;20033;-74
2023/03/08 05:15:22;;;;;;;16.65;8.00;;;4.20;95.20;;;;;;4969196;28;20035;-75
2023/03/08 05:17:48;;;;;;;15.93;8.05;;;4.20;95.20;;;;;;4965503;28;20388;-74
2023/03/08 05:20:13;;;;;;;18.52;8.27;;;4.20;95.40;;;;;;4967465;28;20027;-75
2023/03/08 05:22:39;;;;;;;19.20;8.63;;;4.20;95.50;;;;;;4969401;28;20521;-74
2023/03/08 05:25:05;;;;;;;17.92;9.38;;;4.20;95.50;;;;;;4969633;28;20384;-74
2023/03/08 05:27:34;;;;;;;16.75;8.75;;;4.20;95.50;;;;;;4965660;28;20035;-74
2023/03/08 05:30:00;;;;;;;18.10;8.25;;;4.30;95.50;;;;;;4965992;28;20024;-74
2023/03/08 05:32:25;;;;;;;20.05;8.98;;;4.30;95.60;;;;;;4967672;28;20089;-74
2023/03/08 05:34:52;;;;;;;18.05;8.20;;;4.30;95.60;;;;;;4966616;28;20053;-74
2023/03/08 05:37:17;;;;;;;17.05;8.57;;;4.30;95.60;;;;;;4967230;28;20058;-74
2023/03/08 05:39:43;;;;;;;16.50;9.20;;;4.30;95.60;;;;;;4967712;28;20073;-74
2023/03/08 05:42:10;;;;;;;17.85;8.57;;;4.30;95.60;;;;;;4968971;28;20089;-74
2023/03/08 05:44:36;;;;;;;16.17;8.65;;;4.30;95.70;;;;;;4967818;28;20035;-74
2023/03/08 05:47:02;;;;;;;19.65;9.10;;;4.30;95.70;;;;;;4964738;28;20415;-73
2023/03/08 05:49:28;;;;;;;19.08;9.63;;;4.30;95.70;;;;;;4963791;28;20037;-74
2023/03/08 05:51:54;;;;;;;20.35;9.45;;;4.30;95.70;;;;;;4964014;28;20058;-73
2023/03/08 05:54:20;;;;;;;19.30;9.50;;;4.30;95.80;;;;;;4963822;28;20488;-73
2023/03/08 05:56:45;;;;;;;18.63;8.77;;;4.40;96.00;;;;;;4962996;28;20392;-74
2023/03/08 05:59:11;;;;;;;17.98;9.77;;;4.30;96.00;;;;;;4967753;28;20037;-74
2023/03/08 06:01:37;;;;;;;20.70;9.32;;;4.30;96.00;;;;;;4966030;28;20031;-73
2023/03/08 06:04:02;;;;;;;17.85;9.52;;;4.40;96.10;;;;;;4968623;28;20034;-73
2023/03/08 06:06:28;;;;;;;20.90;10.13;;;4.40;96.20;;;;;;4968529;28;20030;-73
2023/03/08 06:08:55;;;;;;;20.63;10.10;;;4.40;96.30;;;;;;4967697;28;20034;-73
2023/03/08 06:11:21;;;;;;;20.33;10.60;;;4.40;96.40;;;;;;4965434;28;20423;-73
2023/03/08 06:13:47;;;;;;;22.13;10.35;;;4.50;96.50;;;;;;4967031;28;20054;-73
2023/03/08 06:16:13;;;;;;;22.60;11.30;;;4.50;96.70;;;;;;4964292;28;20058;-74
2023/03/08 06:18:40;;;;;;;21.17;10.43;;;4.50;96.70;;;;;;4967252;28;20030;-74
2023/03/08 06:21:09;;;;;;;23.08;11.25;;;4.50;96.80;;;;;;4960111;28;20023;-73
2023/03/08 06:23:35;;;;;;;21.77;10.52;;;4.50;96.90;;;;;;4967450;28;20058;-73
2023/03/08 06:26:02;;;;;;;23.33;10.95;;;4.60;97.20;;;;;;4962648;28;20114;-73
2023/03/08 06:28:28;;;;;;;21.70;11.07;;;4.60;97.10;;;;;;4960495;28;20035;-73
2023/03/08 06:30:54;;;;;;;23.52;11.43;;;4.60;97.10;;;;;;4964169;28;20155;-73
2023/03/08 06:33:23;;;;;;;21.67;11.20;;;4.60;97.20;;;;;;4967948;28;20039;-73
2023/03/08 06:35:59;;;;;;;24.00;11.80;;;4.60;97.20;;;;;;4960713;28;20093;-74
2023/03/08 06:38:25;;;;;;;23.75;11.70;;;4.60;97.30;;;;;;4961222;28;20062;-74
2023/03/08 06:40:51;;;;;;;20.75;11.57;;;4.70;97.40;;;;;;4962565;28;20086;-74
2023/03/08 06:43:17;;;;;;;21.10;11.35;;;4.70;97.80;;;;;;4964145;28;20030;-73
2023/03/08 06:45:43;;;;;;;25.92;12.20;;;4.70;97.50;;;;;;4968585;28;20443;-73
2023/03/08 06:48:09;;;;;;;20.98;10.85;;;4.70;97.50;;;;;;4963860;28;20030;-74
2023/03/08 06:50:35;;;;;;;23.13;11.60;;;4.80;97.60;;;;;;4966912;28;20459;-74
2023/03/08 06:53:00;;;;;;;25.45;11.52;;;4.80;97.60;;;;;;4963457;28;20413;-76
2023/03/08 06:55:26;;;;;;;24.15;11.82;;;4.80;97.80;;;;;;4960869;28;20035;-75
2023/03/08 06:57:54;;;;;;;21.23;11.32;;;4.90;97.80;;;;;;4972132;28;20427;-74
2023/03/08 07:00:20;;;;;;;25.58;12.48;;;4.90;97.80;;;;;;4956064;28;20037;-73
2023/03/08 07:02:47;;;;;;;28.08;13.27;;;4.90;97.80;;;;;;4964172;28;20387;-72
2023/03/08 07:05:14;;;;;;;24.05;12.80;;;5.00;97.90;;;;;;4963051;28;20018;-73
2023/03/08 07:07:41;;;;;;;23.75;10.95;;;5.00;97.90;;;;;;4968263;28;20059;-75
2023/03/08 07:10:09;;;;;;;20.25;11.10;;;5.10;98.00;;;;;;4965861;28;20090;-74
2023/03/08 07:12:39;;;;;;;20.17;11.27;;;5.10;98.00;;;;;;4961876;28;20432;-73
2023/03/08 07:15:06;;;;;;;24.88;11.65;;;5.10;98.10;;;;;;4966918;28;20054;-74
2023/03/08 07:17:33;;;;;;;24.42;11.85;;;5.20;98.10;;;;;;4905186;28;20074;-73
2023/03/08 07:19:59;;;;;;;26.15;12.00;;;5.20;98.10;;;;;;4977352;28;20249;-74
2023/03/08 07:22:24;;;;;;;23.98;10.60;;;5.20;98.20;;;;;;4984895;28;20041;-72
2023/03/08 07:24:50;;;;;;;20.17;10.68;;;5.30;98.20;;;;;;4978700;28;20038;-73
2023/03/08 07:27:16;;;;;;;21.90;11.07;;;5.30;98.20;;;;;;4981764;28;20493;-73
2023/03/08 07:29:41;;;;;;;23.98;11.45;;;5.40;98.30;;;;;;4981501;28;20026;-73
2023/03/08 07:32:07;;;;;;;19.33;10.80;;;5.40;98.30;;;;;;4985941;28;20026;-74
2023/03/08 07:34:33;;;;;;;21.17;11.93;;;5.40;98.30;;;;;;4982443;28;20057;-75
2023/03/08 07:36:58;;;;;;;20.95;10.15;;;5.50;98.30;;;;;;4986663;28;20113;-74
2023/03/08 07:39:24;;;;;;;18.80;10.27;;;5.50;98.20;;;;;;4985813;28;20073;-75
2023/03/08 07:41:49;;;;;;;19.88;10.90;;;5.50;98.30;;;;;;4983347;28;20563;-74
2023/03/08 07:44:15;;;;;;;23.13;10.68;;;5.60;98.20;;;;;;4985001;28;20444;-74
2023/03/08 07:46:41;;;;;;;19.20;10.65;;;5.60;98.20;;;;;;4982958;28;20034;-75
2023/03/08 07:49:09;;;;;;;21.70;10.63;;;5.70;98.20;;;;;;4983978;28;20141;-76
2023/03/08 07:51:36;;;;;;;19.98;9.90;;;5.70;98.20;;;;;;4986927;28;20023;-75
2023/03/08 07:54:02;;;;;;;22.20;10.88;;;5.80;98.30;;;;;;4983511;28;20054;-74
2023/03/08 07:56:28;;;;;;;23.55;10.43;;;5.80;98.30;;;;;;4980894;28;20117;-74
2023/03/08 07:58:57;;;;;;;20.58;10.55;;;5.90;98.30;;;;;;4979109;28;20041;-75
2023/03/08 08:01:23;;;;;;;17.98;9.48;;;5.90;98.30;;;;;;4980824;28;20062;-75
2023/03/08 08:03:49;;;;;;;22.55;10.73;;;6.00;98.40;;;;;;4982606;28;20054;-74
2023/03/08 08:06:15;;;;;;;21.08;10.48;;;6.00;98.30;;;;;;4980059;28;20039;-66
2023/03/08 08:08:41;;;;;;;24.38;10.77;;;6.00;98.80;;;;;;4985405;28;20039;-75
2023/03/08 08:11:15;;;;;;;24.08;9.88;;;6.20;99.20;;;;;;4984114;28;20479;-73
2023/03/08 08:13:41;;;;;;;25.67;10.98;;;6.20;98.60;;;;;;4985653;28;20022;-74
2023/03/08 08:16:07;;;;;;;19.85;10.23;;;6.20;98.60;;;;;;4979726;28;20050;-74
2023/03/08 08:18:34;;;;;;;16.83;9.27;;;6.30;98.50;;;;;;4984175;28;20027;-74
2023/03/08 08:21:01;;;;;;;19.30;8.90;;;6.30;98.40;;;;;;4979094;28;20113;-74
2023/03/08 08:23:27;;;;;;;15.30;8.65;;;6.30;98.70;;;;;;4985179;28;20105;-74
2023/03/08 08:25:53;;;;;;;17.90;9.30;;;6.30;98.50;;;;;;4981241;28;20113;-74
2023/03/08 08:28:19;;;;;;;18.30;8.48;;;6.40;98.40;;;;;;4985984;28;20041;-74
2023/03/08 08:30:55;;;;;;;13.07;7.22;;;6.40;98.40;;;;;;4983140;28;20045;-75
2023/03/08 08:33:20;;;;;;;14.85;7.75;;;6.40;98.40;;;;;;4984769;28;20129;-74
2023/03/08 08:35:46;;;;;;;15.60;8.05;;;6.40;98.40;;;;;;4978192;28;20121;-74
2023/03/08 08:38:11;;;;;;;17.73;9.32;;;6.50;98.40;;;;;;4980823;28;20062;-74
2023/03/08 08:40:37;;;;;;;16.67;7.97;;;6.50;98.20;;;;;;4976488;28;20040;-74
2023/03/08 08:43:02;;;;;;;13.82;7.75;;;6.60;98.40;;;;;;4981516;28;20035;-74
2023/03/08 08:45:28;;;;;;;16.15;7.85;;;6.70;98.20;;;;;;4984427;28;20031;-74
2023/03/08 08:47:54;;;;;;;15.63;7.75;;;6.70;98.40;;;;;;4981570;28;20027;-75
2023/03/08 08:50:19;;;;;;;16.50;7.95;;;6.80;98.60;;;;;;4983637;28;20487;-75
2023/03/08 08:52:45;;;;;;;14.00;7.20;;;6.80;98.80;;;;;;4986629;28;20723;-73
2023/03/08 08:55:10;;;;;;;14.35;7.13;;;6.80;99.10;;;;;;4982833;28;20446;-74
2023/03/08 08:57:36;;;;;;;15.77;7.05;;;6.90;99.10;;;;;;4983024;28;20058;-74
2023/03/08 09:00:04;;;;;;;13.10;6.90;;;6.90;98.90;;;;;;4979461;28;20057;-74
2023/03/08 09:02:30;;;;;;;12.45;6.60;;;6.90;99.20;;;;;;4985073;28;20034;-75
2023/03/08 09:04:55;;;;;;;13.70;6.28;;;7.00;99.20;;;;;;4983515;28;20042;-75
2023/03/08 09:07:21;;;;;;;12.63;6.55;;;7.00;99.40;;;;;;4981698;28;20097;-75
2023/03/08 09:09:47;;;;;;;11.45;6.53;;;7.10;99.30;;;;;;4979941;28;20034;-74
2023/03/08 09:12:13;;;;;;;15.55;6.50;;;7.10;99.20;;;;;;5001703;28;20380;-75
2023/03/08 09:14:38;;;;;;;12.98;7.10;;;7.20;99.20;;;;;;4988007;28;20018;-75
2023/03/08 09:17:07;;;;;;;15.43;7.85;;;7.20;99.20;;;;;;4990866;23;20038;-72
2023/03/08 09:19:35;;;;;;;14.52;7.82;;;7.20;99.40;;;;;;4975954;28;20035;-71
2023/03/08 09:22:00;;;;;;;15.32;7.90;;;7.20;99.60;;;;;;4989482;28;20089;-72
2023/03/08 09:24:26;;;;;;;16.52;8.80;;;7.20;99.70;;;;;;4969104;28;20038;-73
2023/03/08 09:26:51;;;;;;;17.08;10.18;;;7.20;99.70;;;;;;4984680;28;20031;-74
2023/03/08 09:29:17;;;;;;;18.30;9.35;;;7.20;99.60;;;;;;4969840;28;20431;-73
2023/03/08 09:31:44;;;;;;;19.33;9.23;;;7.20;99.50;;;;;;4971854;28;20039;-74
2023/03/08 09:34:13;;;;;;;18.27;8.93;;;7.20;99.40;;;;;;4976553;28;20391;-73
2023/03/08 09:36:39;;;;;;;17.23;8.65;;;7.20;99.60;;;;;;4971132;28;20109;-72
2023/03/08 09:39:05;;;;;;;15.73;7.90;;;7.20;99.90;;;;;;4978112;28;20038;-73
2023/03/08 09:41:57;;;;;;;11.82;6.47;;;7.20;99.90;;;;;;4963156;28;20477;-72
2023/03/08 09:44:59;;;;;;;14.75;7.95;;;7.20;99.90;;;;;;4969077;28;20392;-72
2023/03/08 09:47:45;;;;;;;13.07;5.40;;;7.30;99.90;;;;;;4972518;28;20470;-74
2023/03/08 09:50:10;;;;;;;12.23;4.13;;;7.30;99.90;;;;;;4961555;28;20507;-73
2023/03/08 09:52:53;;;;;;;6.25;3.22;;;7.40;99.90;;;;;;4964771;28;20050;-72
2023/03/08 09:55:28;;;;;;;3.90;1.67;;;7.60;99.90;;;;;;4971879;28;20023;-72
2023/03/08 09:57:57;;;;;;;2.92;1.30;;;7.70;99.90;;;;;;4965548;28;20023;-73
2023/03/08 10:00:36;;;;;;;1.80;1.05;;;7.90;99.90;;;;;;4977078;28;20383;-73
2023/03/08 10:03:53;;;;;;;3.03;1.10;;;8.20;99.90;;;;;;4965408;28;20078;-73
2023/03/08 10:06:38;;;;;;;1.77;1.17;;;8.40;99.90;;;;;;4957675;28;20519;-71
2023/03/08 10:09:18;;;;;;;2.45;1.20;;;8.50;99.90;;;;;;4966527;28;20031;-73
2023/03/08 10:11:47;;;;;;;1.40;0.90;;;8.70;99.90;;;;;;4970783;28;20031;-70
2023/03/08 10:14:31;;;;;;;2.08;1.13;;;8.80;99.90;;;;;;4973029;28;20027;-71
2023/03/08 10:17:03;;;;;;;3.65;1.05;;;8.80;99.90;;;;;;4972530;28;20385;-71
2023/03/08 10:19:45;;;;;;;2.25;0.90;;;8.90;99.90;;;;;;4973079;28;20034;-69
2023/03/08 10:22:33;;;;;;;3.17;1.00;;;9.00;99.90;;;;;;4966435;28;20122;-72
2023/03/08 10:25:34;;;;;;;1.92;1.00;;;9.10;99.90;;;;;;4965776;28;20058;-75
2023/03/08 10:28:02;;;;;;;1.63;0.90;;;9.10;99.90;;;;;;4968363;28;20023;-74
2023/03/08 10:30:35;;;;;;;4.78;1.70;;;9.20;99.90;;;;;;4965400;28;20027;-74
2023/03/08 10:33:06;;;;;;;2.72;1.42;;;9.20;99.90;;;;;;4968374;28;20043;-73
2023/03/08 10:35:57;;;;;;;4.40;0.80;;;9.20;99.90;;;;;;4969705;28;20086;-74
2023/03/08 10:38:25;;;;;;;1.95;0.90;;;9.30;99.90;;;;;;4971316;28;20039;-74
2023/03/08 10:41:11;;;;;;;2.13;1.08;;;9.40;99.90;;;;;;4969141;28;20031;-74
2023/03/08 10:43:48;;;;;;;1.33;0.90;;;9.50;99.90;;;;;;4967050;28;20031;-74
2023/03/08 10:46:17;;;;;;;1.80;1.00;;;9.60;99.90;;;;;;4964067;28;20035;-73
2023/03/08 10:48:43;;;;;;;2.13;1.00;;;9.80;99.90;;;;;;4958958;28;20084;-75
2023/03/08 10:51:20;;;;;;;1.08;0.80;;;9.90;99.90;;;;;;4966425;28;20078;-74
2023/03/08 10:54:13;;;;;;;0.95;0.60;;;10.10;99.90;;;;;;4966785;28;20035;-75
2023/03/08 10:56:46;;;;;;;1.25;0.70;;;10.20;99.90;;;;;;4967569;28;20039;-74
2023/03/08 10:59:30;;;;;;;6.63;0.90;;;10.30;99.90;;;;;;4971647;28;20121;-74
2023/03/08 11:02:00;;;;;;;2.17;0.70;;;10.50;99.90;;;;;;4965704;28;20023;-75
2023/03/08 11:04:27;;;;;;;1.20;0.70;;;10.70;99.90;;;;;;4970869;28;20464;-75
2023/03/08 11:06:53;;;;;;;2.40;0.70;;;10.80;99.90;;;;;;4972199;28;20034;-75
2023/03/08 11:09:28;;;;;;;3.75;0.98;;;10.90;99.90;;;;;;4965428;28;20034;-75
2023/03/08 11:11:55;;;;;;;1.45;0.60;;;11.10;99.90;;;;;;4968968;28;20502;-72
2023/03/08 11:14:21;;;;;;;3.72;1.05;;;11.20;99.90;;;;;;4972604;28;20033;-75
2023/03/08 11:17:14;;;;;;;2.90;0.60;;;11.30;99.90;;;;;;4967778;28;20038;-73
2023/03/08 11:20:09;;;;;;;1.23;0.55;;;11.40;99.90;;;;;;4970022;28;20027;-74
2023/03/08 11:22:44;;;;;;;5.15;0.60;;;11.50;99.90;;;;;;4963785;28;20026;-74
2023/03/08 11:25:31;;;;;;;2.28;0.68;;;11.70;99.90;;;;;;4965672;28;20506;-73
2023/03/08 11:28:23;;;;;;;1.65;0.50;;;11.80;99.90;;;;;;4965117;28;20023;-73
2023/03/08 11:31:03;;;;;;;4.22;0.80;;;11.90;99.90;;;;;;4964318;28;20039;-74
2023/03/08 11:33:32;;;;;;;3.35;0.70;;;11.90;99.90;;;;;;4960085;28;20023;-73
2023/03/08 11:36:42;;;;;;;1.73;0.75;;;12.00;99.90;;;;;;4971242;28;20031;-75
2023/03/08 11:39:27;;;;;;;3.47;0.60;;;12.10;99.90;;;;;;4962343;28;20604;-74
2023/03/08 11:41:56;;;;;;;0.60;0.40;;;12.30;99.90;;;;;;4963936;28;20159;-75
2023/03/08 11:44:47;;;;;;;2.92;0.50;;;12.30;99.90;;;;;;4964200;28;20034;-74
2023/03/08 11:47:32;;;;;;;5.00;0.60;;;12.50;99.90;;;;;;4965575;28;20042;-73
2023/03/08 11:50:13;;;;;;;2.25;0.50;;;12.60;99.90;;;;;;4962036;28;20023;-74
2023/03/08 11:53:09;;;;;;;0.80;0.45;;;12.70;99.90;;;;;;4964755;28;20062;-74
2023/03/08 11:55:59;;;;;;;2.67;0.50;;;12.80;99.90;;;;;;4980584;28;20401;-73
2023/03/08 11:58:39;;;;;;;2.03;0.65;;;12.90;99.90;;;;;;4964374;28;20041;-74
2023/03/08 12:01:26;;;;;;;1.13;0.43;;;13.00;99.90;;;;;;4967652;28;20085;-74
2023/03/08 12:03:59;;;;;;;1.25;0.50;;;13.10;99.90;;;;;;4965707;28;20041;-74
2023/03/08 12:06:31;;;;;;;0.70;0.40;;;13.20;99.90;;;;;;4961774;28;20222;-74
2023/03/08 12:09:14;;;;;;;1.25;0.77;;;13.20;99.90;;;;;;4961962;28;20114;-74
2023/03/08 12:11:58;;;;;;;1.65;0.65;;;13.30;99.90;;;;;;4963433;28;20037;-73
2023/03/08 12:14:39;;;;;;;1.80;0.70;;;13.40;99.90;;;;;;4965490;28;20127;-72
2023/03/08 12:17:14;;;;;;;3.38;0.43;;;13.40;99.90;;;;;;4963583;28;20027;-74
2023/03/08 12:19:45;;;;;;;1.20;0.60;;;13.40;99.90;;;;;;4962635;28;20059;-73
2023/03/08 12:22:17;;;;;;;2.70;0.40;;;13.30;99.90;;;;;;4967456;28;20492;-74
2023/03/08 12:24:45;;;;;;;0.93;0.50;;;13.20;99.90;;;;;;4964553;28;20424;-74
2023/03/08 12:27:30;;;;;;;2.03;0.60;;;13.20;99.90;;;;;;4962856;28;20023;-74
2023/03/08 12:30:32;;;;;;;3.25;0.70;;;13.10;99.90;;;;;;4966716;28;20054;-74
2023/03/08 12:33:02;;;;;;;3.78;0.75;;;13.10;99.90;;;;;;4964660;28;20042;-74
2023/03/08 12:35:34;;;;;;;4.05;0.77;;;13.00;99.90;;;;;;4970659;28;20030;-73
2023/03/08 12:38:06;;;;;;;3.28;0.70;;;13.00;99.90;;;;;;4971570;28;20023;-73
2023/03/08 12:40:37;;;;;;;1.65;0.57;;;13.00;99.90;;;;;;4970731;28;20496;-73
2023/03/08 12:43:19;;;;;;;1.60;0.88;;;12.90;99.90;;;;;;4970630;28;20027;-75
2023/03/08 12:45:47;;;;;;;1.38;0.45;;;12.90;99.90;;;;;;4969568;28;20086;-75
2023/03/08 12:48:47;;;;;;;2.10;0.70;;;12.80;99.90;;;;;;4967142;28;20133;-73
2023/03/08 12:51:13;;;;;;;0.47;0.30;;;12.70;99.90;;;;;;4973845;28;20412;-74
2023/03/08 12:53:50;;;;;;;1.10;0.40;;;12.70;99.90;;;;;;4976842;28;20067;-74
2023/03/08 12:56:22;;;;;;;0.95;0.43;;;12.50;99.90;;;;;;4969906;28;20045;-74
2023/03/08 12:59:02;;;;;;;2.38;0.52;;;12.50;99.90;;;;;;4963108;28;20027;-73